createdAt,value
2017-10-09T00:00:56.824Z,99710.34
2017-10-09T00:05:00.260Z,99720.98
2017-10-09T00:09:04.076Z,99714.84
2017-10-09T00:13:07.516Z,99716.04
2017-10-09T00:17:11.235Z,99718.50
2017-10-09T00:21:14.672Z,99712.90
2017-10-09T00:25:18.384Z,99716.83
2017-10-09T00:29:24.132Z,99710.55
2017-10-09T00:33:27.883Z,99714.91
2017-10-09T00:37:32.824Z,99722.27
2017-10-09T00:41:36.644Z,99716.52
2017-10-09T00:45:40.078Z,99716.64
2017-10-09T00:49:43.792Z,99709.96
2017-10-09T00:53:47.216Z,99709.14
2017-10-09T00:57:50.934Z,99713.91
2017-10-09T01:01:54.367Z,99714.42
2017-10-09T01:05:58.200Z,99714.97
2017-10-09T01:10:01.632Z,99717.29
2017-10-09T01:14:06.112Z,99715.38
2017-10-09T01:18:09.547Z,99711.83
2017-10-09T01:22:13.259Z,99716.05
2017-10-09T01:26:16.815Z,99704.30
2017-10-09T01:30:20.583Z,99706.34
2017-10-09T01:34:24.028Z,99708.11
2017-10-09T01:38:27.817Z,99704.70
2017-10-09T01:42:32.016Z,99710.29
2017-10-09T01:46:35.852Z,99711.23
2017-10-09T01:50:39.296Z,99705.92
2017-10-09T01:54:43.116Z,99704.15
2017-10-09T01:58:46.548Z,99704.25
2017-10-09T02:02:50.254Z,99705.75
2017-10-09T02:06:53.679Z,99704.52
2017-10-09T02:10:57.508Z,99703.70
2017-10-09T02:15:00.937Z,99698.38
2017-10-09T02:19:05.456Z,99707.52
2017-10-09T02:23:09.734Z,99698.62
2017-10-09T02:27:13.488Z,99708.70
2017-10-09T02:31:16.937Z,99702.30
2017-10-09T02:35:20.707Z,99702.98
2017-10-09T02:39:24.143Z,99702.16
2017-10-09T02:43:28.642Z,99702.70
2017-10-09T02:47:32.192Z,99712.25
2017-10-09T02:51:35.971Z,99707.47
2017-10-09T02:55:39.396Z,99707.06
2017-10-09T02:59:43.928Z,99702.66
2017-10-09T03:03:48.128Z,99702.25
2017-10-09T03:07:51.942Z,99696.94
2017-10-09T03:11:56.152Z,99692.44
2017-10-09T03:15:59.983Z,99696.25
2017-10-09T03:20:03.479Z,99696.80
2017-10-09T03:24:18.052Z,99695.56
2017-10-09T03:28:27.876Z,99699.21
2017-10-09T03:32:31.638Z,99699.89
2017-10-09T03:36:35.071Z,99697.70
2017-10-09T03:40:38.900Z,99696.48
2017-10-09T03:44:42.335Z,99703.43
2017-10-09T03:48:46.056Z,99699.48
2017-10-09T03:52:49.488Z,99705.03
2017-10-09T03:56:53.240Z,99704.76
2017-10-09T04:00:56.674Z,99704.34
2017-10-09T04:05:00.423Z,99701.89
2017-10-09T04:09:04.611Z,99708.16
2017-10-09T04:13:08.351Z,99706.93
2017-10-09T04:17:11.799Z,99707.17
2017-10-09T04:21:15.556Z,99707.17
2017-10-09T04:25:18.997Z,99708.66
2017-10-09T04:29:23.503Z,99706.07
2017-10-09T04:33:26.932Z,99711.66
2017-10-09T04:37:31.443Z,99709.20
2017-10-09T04:41:34.870Z,99701.94
2017-10-09T04:45:39.379Z,99704.39
2017-10-09T04:49:42.819Z,99702.75
2017-10-09T04:53:47.323Z,99712.70
2017-10-09T04:57:50.764Z,99710.11
2017-10-09T05:01:54.542Z,99711.61
2017-10-09T05:05:57.959Z,99704.39
2017-10-09T05:10:01.776Z,99704.52
2017-10-09T05:14:05.967Z,99715.52
2017-10-09T05:18:09.704Z,99712.80
2017-10-09T05:22:13.139Z,99714.30
2017-10-09T05:26:16.924Z,99713.61
2017-10-09T05:30:20.368Z,99716.34
2017-10-09T05:34:24.151Z,99712.52
2017-10-09T05:38:27.575Z,99718.92
2017-10-09T05:42:32.078Z,99712.61
2017-10-09T05:46:35.508Z,99717.79
2017-10-09T05:50:40.028Z,99719.70
2017-10-09T05:54:43.520Z,99717.38
2017-10-09T05:58:47.349Z,99720.52
2017-10-09T06:02:50.784Z,99723.83
2017-10-09T06:06:54.563Z,99723.02
2017-10-09T06:10:58.007Z,99719.52
2017-10-09T06:15:01.729Z,99723.48
2017-10-09T06:19:05.158Z,99722.02
2017-10-09T06:23:08.876Z,99717.16
2017-10-09T06:27:12.308Z,99720.61
2017-10-09T06:31:16.033Z,99717.66
2017-10-09T06:35:19.473Z,99717.02
2017-10-09T06:39:23.247Z,99716.07
2017-10-09T06:43:28.182Z,99710.66
2017-10-09T06:47:33.444Z,99706.70
2017-10-09T06:51:36.888Z,99704.66
2017-10-09T06:55:40.660Z,99706.60
2017-10-09T06:59:44.092Z,99713.70
2017-10-09T07:03:48.599Z,99716.56
2017-10-09T07:07:52.040Z,99710.59
2017-10-09T07:11:55.821Z,99719.33
2017-10-09T07:15:59.371Z,99717.29
2017-10-09T07:20:03.152Z,99725.78
2017-10-09T07:24:07.396Z,99724.55
2017-10-09T07:28:11.112Z,99734.37
2017-10-09T07:32:14.548Z,99734.55
2017-10-09T07:36:18.296Z,99737.14
2017-10-09T07:40:21.732Z,99738.65
2017-10-09T07:44:26.236Z,99740.83
2017-10-09T07:48:29.664Z,99743.97
2017-10-09T07:52:34.388Z,99742.78
2017-10-09T07:56:37.814Z,99745.09
2017-10-09T08:00:42.422Z,99748.92
2017-10-09T08:04:45.865Z,99747.97
2017-10-09T08:08:49.667Z,99748.11
2017-10-09T08:12:53.863Z,99743.36
2017-10-09T08:16:57.679Z,99758.52
2017-10-09T08:21:01.112Z,99756.06
2017-10-09T08:25:05.625Z,99759.09
2017-10-09T08:29:09.060Z,99751.63
2017-10-09T08:33:12.792Z,99751.22
2017-10-09T08:37:16.228Z,99744.56
2017-10-09T08:41:20.085Z,99755.21
2017-10-09T08:45:24.390Z,99750.98
2017-10-09T08:49:27.860Z,99749.66
2017-10-09T08:53:31.323Z,99747.61
2017-10-09T08:57:37.776Z,99748.30
2017-10-09T09:01:42.018Z,99751.43
2017-10-09T09:14:03.815Z,99753.06
2017-10-09T09:18:08.040Z,99756.20
2017-10-09T09:30:29.830Z,99750.88
2017-10-09T09:34:35.681Z,99751.84
2017-10-09T09:38:40.211Z,99752.80
2017-10-09T09:55:11.027Z,99734.77
2017-10-09T09:59:14.464Z,99736.14
2017-10-09T10:03:18.254Z,99732.16
2017-10-09T10:07:21.675Z,99733.41
2017-10-09T10:11:26.188Z,99733.52
2017-10-09T10:15:29.615Z,99730.38
2017-10-09T10:19:34.079Z,99729.42
2017-10-09T10:23:37.510Z,99730.79
2017-10-09T10:27:41.352Z,99729.86
2017-10-09T10:31:44.784Z,99726.18
2017-10-09T10:35:48.676Z,99717.58
2017-10-09T10:39:52.103Z,99718.09
2017-10-09T10:43:56.609Z,99717.14
2017-10-09T10:48:00.040Z,99715.23
2017-10-09T10:52:04.547Z,99716.86
2017-10-09T10:56:07.981Z,99715.50
2017-10-09T11:00:11.772Z,99708.92
2017-10-09T11:04:15.235Z,99706.73
2017-10-09T11:08:18.969Z,99704.55
2017-10-09T11:12:22.410Z,99700.18
2017-10-09T11:16:26.927Z,99700.73
2017-10-09T11:20:30.372Z,99705.78
2017-10-09T11:24:34.153Z,99701.14
2017-10-09T11:28:37.587Z,99699.88
2017-10-09T11:32:41.368Z,99693.05
2017-10-09T11:36:44.804Z,99693.77
2017-10-09T11:40:49.328Z,99686.54
2017-10-09T11:44:53.536Z,99683.44
2017-10-09T11:48:57.348Z,99678.66
2017-10-09T11:53:00.808Z,99674.19
2017-10-09T11:57:04.577Z,99679.51
2017-10-09T12:01:08.780Z,99681.45
2017-10-09T12:05:12.582Z,99673.94
2017-10-09T12:09:16.016Z,99671.79
2017-10-09T12:13:21.244Z,99670.97
2017-10-09T12:17:24.680Z,99666.09
2017-10-09T12:21:29.192Z,99663.22
2017-10-09T12:25:32.638Z,99655.11
2017-10-09T12:29:36.429Z,99653.50
2017-10-09T12:33:39.864Z,99653.66
2017-10-09T12:37:43.648Z,99653.70
2017-10-09T12:41:47.077Z,99650.31
2017-10-09T12:45:50.793Z,99647.58
2017-10-09T12:49:54.224Z,99646.92
2017-10-09T12:53:58.086Z,99636.00
2017-10-09T12:58:01.528Z,99632.89
2017-10-09T13:02:05.312Z,99629.88
2017-10-09T13:06:08.752Z,99630.72
2017-10-09T13:10:12.520Z,99626.87
2017-10-09T13:14:15.952Z,99628.53
2017-10-09T13:18:20.471Z,99627.19
2017-10-09T13:22:23.903Z,99618.72
2017-10-09T13:26:27.691Z,99615.06
2017-10-09T13:30:31.888Z,99611.63
2017-10-09T13:34:35.728Z,99602.09
2017-10-09T13:38:39.179Z,99607.27
2017-10-09T13:42:42.952Z,99607.02
2017-10-09T13:46:46.403Z,99602.51
2017-10-09T13:54:58.875Z,99601.28
2017-10-09T13:59:02.631Z,99596.50
2017-10-09T14:07:15.383Z,99594.73
2017-10-09T14:11:19.605Z,99589.37
2017-10-09T14:15:24.156Z,99584.88
2017-10-09T14:27:46.134Z,99578.61
2017-10-09T14:39:57.687Z,99574.13
2017-10-09T14:44:01.915Z,99571.80
2017-10-09T14:48:05.722Z,99568.78
2017-10-09T14:52:09.942Z,99565.36
2017-10-09T14:56:14.262Z,99562.64
2017-10-09T15:00:18.559Z,99555.28
2017-10-09T15:04:22.051Z,99559.25
2017-10-09T15:08:25.501Z,99555.55
2017-10-09T15:12:29.734Z,99550.77
2017-10-09T15:16:33.963Z,99559.23
2017-10-09T15:20:38.221Z,99552.00
2017-10-09T15:24:41.678Z,99551.34
2017-10-09T15:28:46.672Z,99553.79
2017-10-09T15:32:50.123Z,99547.78
2017-10-09T15:36:53.599Z,99548.19
2017-10-09T15:40:57.052Z,99550.23
2017-10-09T15:45:01.299Z,99544.11
2017-10-09T15:49:04.760Z,99537.55
2017-10-09T15:53:08.239Z,99548.47
2017-10-09T15:57:11.693Z,99545.38
2017-10-09T16:02:48.859Z,99545.09
2017-10-09T16:06:52.323Z,99545.38
2017-10-09T16:10:55.799Z,99542.78
2017-10-09T16:14:59.270Z,99549.02
2017-10-09T16:19:03.019Z,99552.44
2017-10-09T16:23:06.477Z,99547.25
2017-10-09T16:27:09.985Z,99550.23
2017-10-09T16:31:13.435Z,99553.66
2017-10-09T16:35:16.923Z,99545.59
2017-10-09T16:39:20.399Z,99550.24
2017-10-09T16:43:23.876Z,99547.35
2017-10-09T16:47:28.097Z,99548.45
2017-10-09T16:51:31.578Z,99549.00
2017-10-09T16:55:35.034Z,99551.05
2017-10-09T16:59:38.843Z,99548.45
2017-10-09T17:03:43.035Z,99543.10
2017-10-09T17:07:46.879Z,99548.70
2017-10-09T17:11:51.099Z,99543.13
2017-10-09T17:15:55.701Z,99545.44
2017-10-09T17:19:59.154Z,99534.94
2017-10-09T17:24:03.408Z,99536.32
2017-10-09T17:28:06.860Z,99529.07
2017-10-09T17:32:11.086Z,99524.47
2017-10-09T17:36:14.554Z,99528.15
2017-10-09T17:40:18.022Z,99527.76
2017-10-09T17:44:22.238Z,99526.39
2017-10-09T17:48:26.483Z,99525.72
2017-10-09T17:52:29.941Z,99530.47
2017-10-09T17:56:33.424Z,99521.73
2017-10-09T18:00:36.884Z,99532.40
2017-10-09T18:04:41.134Z,99528.85
2017-10-09T18:08:45.362Z,99523.20
2017-10-09T18:12:48.864Z,99523.34
2017-10-09T18:16:52.455Z,99521.84
2017-10-09T18:20:56.704Z,99518.67
2017-10-09T18:25:00.155Z,99513.89
2017-10-09T18:29:04.143Z,99511.86
2017-10-09T18:33:07.588Z,99517.31
2017-10-09T18:37:11.370Z,99506.67
2017-10-09T18:41:14.843Z,99512.24
2017-10-09T18:45:19.207Z,99503.64
2017-10-09T18:49:22.671Z,99502.96
2017-10-09T18:53:27.199Z,99510.20
2017-10-09T18:57:31.431Z,99513.07
2017-10-09T19:01:35.681Z,99503.66
2017-10-09T19:05:39.173Z,99500.65
2017-10-09T19:09:42.650Z,99497.07
2017-10-09T19:13:46.131Z,99498.44
2017-10-09T19:17:49.623Z,99495.84
2017-10-09T19:21:53.079Z,99499.13
2017-10-09T19:25:56.918Z,99496.95
2017-10-09T19:30:00.375Z,99496.13
2017-10-09T19:34:03.861Z,99491.21
2017-10-09T19:38:07.308Z,99495.86
2017-10-09T19:42:10.793Z,99490.39
2017-10-09T19:46:14.237Z,99487.66
2017-10-09T19:50:18.757Z,99483.70
2017-10-09T19:54:22.182Z,99487.91
2017-10-09T19:58:26.436Z,99485.59
2017-10-09T20:02:29.890Z,99481.23
2017-10-09T20:06:33.644Z,99481.63
2017-10-09T20:10:37.098Z,99481.77
2017-10-09T20:14:40.854Z,99481.38
2017-10-09T20:18:45.083Z,99480.84
2017-10-09T20:22:48.558Z,99472.38
2017-10-09T20:26:52.035Z,99467.16
2017-10-09T20:30:55.535Z,99470.73
2017-10-09T20:34:58.979Z,99460.64
2017-10-09T20:39:02.459Z,99456.93
2017-10-09T20:43:05.887Z,99462.13
2017-10-09T20:47:09.388Z,99460.50
2017-10-09T20:51:12.839Z,99459.00
2017-10-09T20:55:17.372Z,99459.66
2017-10-09T20:59:21.602Z,99458.03
2017-10-09T21:03:25.415Z,99458.86
2017-10-09T21:07:28.878Z,99451.33
2017-10-09T21:11:32.359Z,99447.51
2017-10-09T21:15:35.828Z,99445.06
2017-10-09T21:19:40.155Z,99445.17
2017-10-09T21:23:44.381Z,99448.20
2017-10-09T21:27:48.911Z,99440.11
2017-10-09T21:31:53.123Z,99438.89
2017-10-09T21:35:56.607Z,99430.97
2017-10-09T21:40:00.088Z,99432.22
2017-10-09T21:44:03.564Z,99426.45
2017-10-09T21:48:07.795Z,99423.45
2017-10-09T21:52:11.279Z,99431.38
2017-10-09T21:56:14.736Z,99432.07
2017-10-09T22:00:18.212Z,99434.09
2017-10-09T22:04:22.432Z,99424.67
2017-10-09T22:08:26.690Z,99422.64
2017-10-09T22:12:30.144Z,99416.61
2017-10-09T22:16:33.634Z,99418.66
2017-10-09T22:20:37.098Z,99414.84
2017-10-09T22:24:40.576Z,99409.94
2017-10-09T22:28:44.807Z,99409.52
2017-10-09T22:32:49.059Z,99406.23
2017-10-09T22:36:52.507Z,99404.59
2017-10-09T22:40:55.990Z,99406.10
2017-10-09T22:44:59.451Z,99400.78
2017-10-09T22:49:03.744Z,99401.84
2017-10-09T22:53:07.186Z,99392.57
2017-10-09T22:57:11.435Z,99391.76
2017-10-09T23:01:14.892Z,99390.67
2017-10-09T23:05:18.747Z,99382.59
2017-10-09T23:09:22.975Z,99379.59
2017-10-09T23:13:26.454Z,99381.23
2017-10-09T23:17:30.688Z,99384.11
2017-10-09T23:21:34.934Z,99380.27
2017-10-09T23:25:38.391Z,99380.00
2017-10-09T23:29:41.846Z,99376.05
2017-10-09T23:33:45.285Z,99378.09
2017-10-09T23:37:48.759Z,99378.65
2017-10-09T23:41:52.976Z,99372.89
2017-10-09T23:45:57.220Z,99374.80
2017-10-09T23:50:00.678Z,99372.35
2017-10-09T23:54:04.545Z,99373.31
2017-10-09T23:58:08.009Z,99367.17
